sensor_id;sensor_type;location;lat;lon;timestamp;pressure;altitude;pressure_sealevel;temperature;humidity
63819;BME280;49970;54.976;73.248;2024-03-06T00:00:26;100435.63;;;-8.36;84.78
63819;BME280;49970;54.976;73.248;2024-03-06T00:02:52;100435.63;;;-8.37;85.03
63819;BME280;49970;54.976;73.248;2024-03-06T00:05:18;100433.84;;;-8.47;84.01
63819;BME280;49970;54.976;73.248;2024-03-06T00:07:45;100438.09;;;-8.51;84.02
63819;BME280;49970;54.976;73.248;2024-03-06T00:10:11;100435.44;;;-8.59;84.88
63819;BME280;49970;54.976;73.248;2024-03-06T00:12:38;100455.13;;;-8.59;84.51
63819;BME280;49970;54.976;73.248;2024-03-06T00:15:05;100440.53;;;-8.62;84.10
63819;BME280;49970;54.976;73.248;2024-03-06T00:17:31;100433.69;;;-8.64;84.85
63819;BME280;49970;54.976;73.248;2024-03-06T00:19:58;100431.94;;;-8.65;84.64
63819;BME280;49970;54.976;73.248;2024-03-06T00:22:24;100428.53;;;-8.67;84.77
63819;BME280;49970;54.976;73.248;2024-03-06T00:24:51;100429.38;;;-8.67;84.00
63819;BME280;49970;54.976;73.248;2024-03-06T00:27:18;100430.28;;;-8.65;84.44
63819;BME280;49970;54.976;73.248;2024-03-06T00:29:44;100433.66;;;-8.66;83.96
63819;BME280;49970;54.976;73.248;2024-03-06T00:32:11;100441.41;;;-8.61;84.48
63819;BME280;49970;54.976;73.248;2024-03-06T00:34:37;100443.13;;;-8.63;84.98
63819;BME280;49970;54.976;73.248;2024-03-06T00:37:03;100439.72;;;-8.61;83.89
63819;BME280;49970;54.976;73.248;2024-03-06T00:39:30;100450.84;;;-8.57;85.01
63819;BME280;49970;54.976;73.248;2024-03-06T00:41:56;100455.16;;;-8.55;83.95
63819;BME280;49970;54.976;73.248;2024-03-06T00:44:23;100450.00;;;-8.58;84.83
63819;BME280;49970;54.976;73.248;2024-03-06T00:46:49;100464.63;;;-8.52;84.83
63819;BME280;49970;54.976;73.248;2024-03-06T00:49:16;100444.91;;;-8.56;83.86
63819;BME280;49970;54.976;73.248;2024-03-06T00:51:42;100439.72;;;-8.59;84.38
63819;BME280;49970;54.976;73.248;2024-03-06T00:54:08;100445.72;;;-8.60;83.86
63819;BME280;49970;54.976;73.248;2024-03-06T00:56:40;100439.69;;;-8.62;84.34
63819;BME280;49970;54.976;73.248;2024-03-06T00:59:07;100440.53;;;-8.63;84.68
63819;BME280;49970;54.976;73.248;2024-03-06T01:01:33;100443.06;;;-8.68;83.83
63819;BME280;49970;54.976;73.248;2024-03-06T01:03:59;100432.72;;;-8.77;83.82
63819;BME280;49970;54.976;73.248;2024-03-06T01:06:26;100450.69;;;-8.75;83.38
63819;BME280;49970;54.976;73.248;2024-03-06T01:09:12;100447.28;;;-8.77;84.27
63819;BME280;49970;54.976;73.248;2024-03-06T01:11:39;100445.53;;;-8.80;84.53
63819;BME280;49970;54.976;73.248;2024-03-06T01:14:05;100436.00;;;-8.92;84.10
63819;BME280;49970;54.976;73.248;2024-03-06T01:16:32;100447.16;;;-8.90;83.11
63819;BME280;49970;54.976;73.248;2024-03-06T01:18:58;100458.28;;;-8.89;83.54
63819;BME280;49970;54.976;73.248;2024-03-06T01:21:25;100466.84;;;-8.89;83.61
63819;BME280;49970;54.976;73.248;2024-03-06T01:23:51;100462.53;;;-8.91;83.36
63819;BME280;49970;54.976;73.248;2024-03-06T01:26:17;100467.66;;;-8.94;84.63
63819;BME280;49970;54.976;73.248;2024-03-06T01:28:44;100465.03;;;-8.97;83.15
63819;BME280;49970;54.976;73.248;2024-03-06T01:31:10;100471.03;;;-8.97;83.53
63819;BME280;49970;54.976;73.248;2024-03-06T01:33:36;100474.44;;;-8.98;84.40
63819;BME280;49970;54.976;73.248;2024-03-06T01:36:04;100467.53;;;-9.04;83.19
63819;BME280;49970;54.976;73.248;2024-03-06T01:38:30;100477.88;;;-8.97;84.16
63819;BME280;49970;54.976;73.248;2024-03-06T01:40:57;100485.53;;;-8.99;83.09
63819;BME280;49970;54.976;73.248;2024-03-06T01:43:24;100482.91;;;-9.04;84.31
63819;BME280;49970;54.976;73.248;2024-03-06T01:45:51;100476.03;;;-9.11;82.95
63819;BME280;49970;54.976;73.248;2024-03-06T01:48:23;100489.72;;;-9.07;83.37
63819;BME280;49970;54.976;73.248;2024-03-06T01:50:56;100488.00;;;-9.08;83.98
63819;BME280;49970;54.976;73.248;2024-03-06T01:53:23;100491.41;;;-9.09;84.36
63819;BME280;49970;54.976;73.248;2024-03-06T01:55:53;100489.66;;;-9.13;84.25
63819;BME280;49970;54.976;73.248;2024-03-06T01:58:21;100476.75;;;-9.21;83.75
63819;BME280;49970;54.976;73.248;2024-03-06T02:00:49;100488.81;;;-9.15;83.19
63819;BME280;49970;54.976;73.248;2024-03-06T02:03:17;100487.91;;;-9.17;83.42
63819;BME280;49970;54.976;73.248;2024-03-06T02:05:43;100493.94;;;-9.14;83.91
63819;BME280;49970;54.976;73.248;2024-03-06T02:08:10;100482.81;;;-9.14;82.67
63819;BME280;49970;54.976;73.248;2024-03-06T02:10:36;100487.94;;;-9.14;84.04
63819;BME280;49970;54.976;73.248;2024-03-06T02:13:03;100485.38;;;-9.14;82.74
63819;BME280;49970;54.976;73.248;2024-03-06T02:15:29;100488.75;;;-9.17;82.89
63819;BME280;49970;54.976;73.248;2024-03-06T02:17:56;100490.47;;;-9.16;84.06
63819;BME280;49970;54.976;73.248;2024-03-06T02:20:24;100489.63;;;-9.16;83.51
63819;BME280;49970;54.976;73.248;2024-03-06T02:22:51;100492.16;;;-9.19;82.39
63819;BME280;49970;54.976;73.248;2024-03-06T02:25:17;100493.03;;;-9.16;82.99
63819;BME280;49970;54.976;73.248;2024-03-06T02:27:46;100479.25;;;-9.24;84.10
63819;BME280;49970;54.976;73.248;2024-03-06T02:30:14;100495.69;;;-9.10;83.15
63819;BME280;49970;54.976;73.248;2024-03-06T02:32:40;100504.25;;;-9.08;84.10
63819;BME280;49970;54.976;73.248;2024-03-06T02:35:07;100495.69;;;-9.10;83.04
63819;BME280;49970;54.976;73.248;2024-03-06T02:37:34;100497.34;;;-9.15;82.85
63819;BME280;49970;54.976;73.248;2024-03-06T02:40:00;100504.16;;;-9.17;83.15
63819;BME280;49970;54.976;73.248;2024-03-06T02:42:28;100498.97;;;-9.20;83.10
63819;BME280;49970;54.976;73.248;2024-03-06T02:44:55;100504.09;;;-9.20;82.69
63819;BME280;49970;54.976;73.248;2024-03-06T02:47:21;100511.75;;;-9.24;83.36
63819;BME280;49970;54.976;73.248;2024-03-06T02:49:47;100508.31;;;-9.25;82.64
63819;BME280;49970;54.976;73.248;2024-03-06T02:52:14;100515.19;;;-9.24;83.03
63819;BME280;49970;54.976;73.248;2024-03-06T02:54:41;100514.38;;;-9.20;82.17
63819;BME280;49970;54.976;73.248;2024-03-06T02:57:08;100515.31;;;-9.12;83.63
63819;BME280;49970;54.976;73.248;2024-03-06T02:59:34;100514.50;;;-9.08;82.52
63819;BME280;49970;54.976;73.248;2024-03-06T03:02:01;100515.47;;;-8.99;82.34
63819;BME280;49970;54.976;73.248;2024-03-06T03:04:29;100507.84;;;-8.93;82.58
63819;BME280;49970;54.976;73.248;2024-03-06T03:06:55;100517.31;;;-8.86;82.35
63819;BME280;49970;54.976;73.248;2024-03-06T03:09:22;100519.06;;;-8.84;83.23
63819;BME280;49970;54.976;73.248;2024-03-06T03:11:49;100521.63;;;-8.85;82.48
63819;BME280;49970;54.976;73.248;2024-03-06T03:14:16;100515.66;;;-8.84;83.12
63819;BME280;49970;54.976;73.248;2024-03-06T03:16:42;100515.69;;;-8.81;82.27
63819;BME280;49970;54.976;73.248;2024-03-06T03:19:09;100518.31;;;-8.75;82.27
63819;BME280;49970;54.976;73.248;2024-03-06T03:21:35;100514.03;;;-8.74;82.19
63819;BME280;49970;54.976;73.248;2024-03-06T03:24:01;100517.56;;;-8.65;82.01
63819;BME280;49970;54.976;73.248;2024-03-06T03:26:29;100518.44;;;-8.63;82.71
63819;BME280;49970;54.976;73.248;2024-03-06T03:28:55;100517.63;;;-8.59;82.74
63819;BME280;49970;54.976;73.248;2024-03-06T03:31:21;100520.19;;;-8.57;81.27
63819;BME280;49970;54.976;73.248;2024-03-06T03:33:48;100519.38;;;-8.55;81.85
63819;BME280;49970;54.976;73.248;2024-03-06T03:36:14;100519.41;;;-8.48;81.88
63819;BME280;49970;54.976;73.248;2024-03-06T03:38:40;100515.22;;;-8.42;81.39
63819;BME280;49970;54.976;73.248;2024-03-06T03:41:11;100518.66;;;-8.35;82.19
63819;BME280;49970;54.976;73.248;2024-03-06T03:43:42;100527.28;;;-8.30;81.56
63819;BME280;49970;54.976;73.248;2024-03-06T03:46:09;100528.16;;;-8.25;82.09
63819;BME280;49970;54.976;73.248;2024-03-06T03:48:35;100531.63;;;-8.21;81.95
63819;BME280;49970;54.976;73.248;2024-03-06T03:51:03;100535.94;;;-8.16;81.76
63819;BME280;49970;54.976;73.248;2024-03-06T03:53:31;100529.16;;;-8.11;81.13
63819;BME280;49970;54.976;73.248;2024-03-06T03:55:57;100533.50;;;-8.02;81.39
63819;BME280;49970;54.976;73.248;2024-03-06T03:58:23;100540.41;;;-7.98;80.93
63819;BME280;49970;54.976;73.248;2024-03-06T04:00:50;100530.13;;;-7.96;81.26
63819;BME280;49970;54.976;73.248;2024-03-06T04:03:22;100529.25;;;-7.97;80.99
63819;BME280;49970;54.976;73.248;2024-03-06T04:06:08;100531.81;;;-7.95;80.16
63819;BME280;49970;54.976;73.248;2024-03-06T04:13:09;100535.28;;;-7.92;80.50
63819;BME280;49970;54.976;73.248;2024-03-06T04:16:41;100537.00;;;-7.92;80.32
63819;BME280;49970;54.976;73.248;2024-03-06T04:20:12;100539.59;;;-7.89;80.21
63819;BME280;49970;54.976;73.248;2024-03-06T04:23:43;100531.91;;;-7.85;80.06
63819;BME280;49970;54.976;73.248;2024-03-06T04:27:13;100529.34;;;-7.85;80.63
63819;BME280;49970;54.976;73.248;2024-03-06T04:34:14;100532.81;;;-7.81;80.18
63819;BME280;49970;54.976;73.248;2024-03-06T04:37:46;100535.41;;;-7.77;79.63
63819;BME280;49970;54.976;73.248;2024-03-06T04:41:18;100525.13;;;-7.75;80.22
63819;BME280;49970;54.976;73.248;2024-03-06T04:44:45;100520.84;;;-7.70;80.77
63819;BME280;49970;54.976;73.248;2024-03-06T04:47:11;100524.34;;;-7.63;80.62
63819;BME280;49970;54.976;73.248;2024-03-06T04:49:38;100529.53;;;-7.53;80.17
63819;BME280;49970;54.976;73.248;2024-03-06T04:52:04;100530.44;;;-7.46;80.38
63819;BME280;49970;54.976;73.248;2024-03-06T04:54:30;100532.19;;;-7.40;79.88
63819;BME280;49970;54.976;73.248;2024-03-06T04:56:57;100522.78;;;-7.38;80.23
63819;BME280;49970;54.976;73.248;2024-03-06T04:59:23;100516.75;;;-7.36;79.87
63819;BME280;49970;54.976;73.248;2024-03-06T05:01:50;100525.38;;;-7.29;79.60
63819;BME280;49970;54.976;73.248;2024-03-06T05:04:17;100510.81;;;-7.27;79.61
63819;BME280;49970;54.976;73.248;2024-03-06T05:06:43;100516.84;;;-7.22;79.79
63819;BME280;49970;54.976;73.248;2024-03-06T05:09:09;100512.59;;;-7.14;80.30
63819;BME280;49970;54.976;73.248;2024-03-06T05:11:37;100523.75;;;-7.12;79.39
63819;BME280;49970;54.976;73.248;2024-03-06T05:14:05;100522.88;;;-7.11;79.66
63819;BME280;49970;54.976;73.248;2024-03-06T05:16:32;100512.56;;;-7.11;79.44
63819;BME280;49970;54.976;73.248;2024-03-06T05:18:58;100516.03;;;-7.03;79.42
63819;BME280;49970;54.976;73.248;2024-03-06T05:21:27;100515.19;;;-6.98;79.54
63819;BME280;49970;54.976;73.248;2024-03-06T05:23:54;100522.13;;;-6.85;79.58
63819;BME280;49970;54.976;73.248;2024-03-06T05:26:20;100523.00;;;-6.79;79.38
63819;BME280;49970;54.976;73.248;2024-03-06T05:28:46;100523.03;;;-6.71;79.35
63819;BME280;49970;54.976;73.248;2024-03-06T05:31:18;100524.75;;;-6.65;79.16
63819;BME280;49970;54.976;73.248;2024-03-06T05:33:49;100523.06;;;-6.60;78.73
63819;BME280;49970;54.976;73.248;2024-03-06T05:36:15;100514.47;;;-6.52;78.78
63819;BME280;49970;54.976;73.248;2024-03-06T05:38:45;100516.19;;;-6.49;78.75
63819;BME280;49970;54.976;73.248;2024-03-06T05:41:11;100511.03;;;-6.44;78.85
63819;BME280;49970;54.976;73.248;2024-03-06T05:43:38;100510.19;;;-6.39;78.99
63819;BME280;49970;54.976;73.248;2024-03-06T05:46:04;100505.03;;;-6.37;78.59
63819;BME280;49970;54.976;73.248;2024-03-06T05:48:31;100511.06;;;-6.38;78.34
63819;BME280;49970;54.976;73.248;2024-03-06T05:50:59;100509.34;;;-6.38;78.10
63819;BME280;49970;54.976;73.248;2024-03-06T05:53:26;100497.28;;;-6.36;78.29
63819;BME280;49970;54.976;73.248;2024-03-06T05:55:52;100503.31;;;-6.37;77.84
63819;BME280;49970;54.976;73.248;2024-03-06T05:58:19;100499.88;;;-6.36;77.82
63819;BME280;49970;54.976;73.248;2024-03-06T06:00:45;100508.47;;;-6.34;77.86
63819;BME280;49970;54.976;73.248;2024-03-06T06:03:12;100507.63;;;-6.37;78.06
63819;BME280;49970;54.976;73.248;2024-03-06T06:05:39;100502.47;;;-6.34;78.55
63819;BME280;49970;54.976;73.248;2024-03-06T06:08:06;100510.19;;;-6.23;78.06
63819;BME280;49970;54.976;73.248;2024-03-06T06:10:52;100507.63;;;-6.17;78.35
63819;BME280;49970;54.976;73.248;2024-03-06T06:14:48;100511.94;;;-6.09;77.97
63819;BME280;49970;54.976;73.248;2024-03-06T06:18:44;100509.34;;;-6.04;78.32
63819;BME280;49970;54.976;73.248;2024-03-06T06:22:41;100505.06;;;-6.05;77.74
63819;BME280;49970;54.976;73.248;2024-03-06T06:26:13;100499.03;;;-6.15;77.59
63819;BME280;49970;54.976;73.248;2024-03-06T06:29:49;100499.03;;;-6.16;78.30
63819;BME280;49970;54.976;73.248;2024-03-06T06:33:26;100496.47;;;-6.10;78.00
63819;BME280;49970;54.976;73.248;2024-03-06T06:35:52;100496.44;;;-6.04;78.18
63819;BME280;49970;54.976;73.248;2024-03-06T06:38:20;100499.03;;;-5.99;77.74
63819;BME280;49970;54.976;73.248;2024-03-06T06:40:46;100497.25;;;-5.90;77.97
63819;BME280;49970;54.976;73.248;2024-03-06T06:43:13;100496.38;;;-5.83;78.17
63819;BME280;49970;54.976;73.248;2024-03-06T06:45:41;100489.50;;;-5.74;78.37
63819;BME280;49970;54.976;73.248;2024-03-06T06:48:08;100480.06;;;-5.72;78.26
63819;BME280;49970;54.976;73.248;2024-03-06T06:50:35;100475.69;;;-5.64;77.61
63819;BME280;49970;54.976;73.248;2024-03-06T06:53:02;100476.56;;;-5.65;77.51
63819;BME280;49970;54.976;73.248;2024-03-06T06:55:28;100484.31;;;-5.65;77.72
63819;BME280;49970;54.976;73.248;2024-03-06T06:57:55;100486.06;;;-5.67;77.47
63819;BME280;49970;54.976;73.248;2024-03-06T07:00:22;100482.59;;;-5.69;77.46
63819;BME280;49970;54.976;73.248;2024-03-06T07:02:49;100478.31;;;-5.70;77.54
63819;BME280;49970;54.976;73.248;2024-03-06T07:05:15;100468.84;;;-5.78;77.57
63819;BME280;49970;54.976;73.248;2024-03-06T07:07:42;100480.03;;;-5.77;77.40
63819;BME280;49970;54.976;73.248;2024-03-06T07:10:08;100468.88;;;-5.76;77.85
63819;BME280;49970;54.976;73.248;2024-03-06T07:12:35;100472.28;;;-5.69;77.75
63819;BME280;49970;54.976;73.248;2024-03-06T07:15:02;100474.88;;;-5.68;77.82
63819;BME280;49970;54.976;73.248;2024-03-06T07:17:29;100472.31;;;-5.68;77.24
63819;BME280;49970;54.976;73.248;2024-03-06T07:19:55;100467.97;;;-5.69;76.98
63819;BME280;49970;54.976;73.248;2024-03-06T07:22:23;100474.00;;;-5.70;77.44
63819;BME280;49970;54.976;73.248;2024-03-06T07:24:49;100467.13;;;-5.68;77.78
63819;BME280;49970;54.976;73.248;2024-03-06T07:27:36;100464.53;;;-5.65;78.43
63819;BME280;49970;54.976;73.248;2024-03-06T07:35:02;100462.84;;;-5.70;77.96
63819;BME280;49970;54.976;73.248;2024-03-06T07:38:12;100464.56;;;-5.68;77.54
63819;BME280;49970;54.976;73.248;2024-03-06T07:40:39;100469.72;;;-5.71;78.14
63819;BME280;49970;54.976;73.248;2024-03-06T07:43:05;100466.28;;;-5.70;78.63
63819;BME280;49970;54.976;73.248;2024-03-06T07:45:32;100456.78;;;-5.65;78.03
63819;BME280;49970;54.976;73.248;2024-03-06T07:48:14;100452.50;;;-5.60;78.47
63819;BME280;49970;54.976;73.248;2024-03-06T07:50:40;100453.34;;;-5.55;78.98
63819;BME280;49970;54.976;73.248;2024-03-06T07:53:07;100453.28;;;-5.48;78.23
63819;BME280;49970;54.976;73.248;2024-03-06T07:55:34;100447.31;;;-5.51;78.76
63819;BME280;49970;54.976;73.248;2024-03-06T07:58:00;100447.28;;;-5.52;78.17
63819;BME280;49970;54.976;73.248;2024-03-06T08:00:26;100438.69;;;-5.53;78.92
63819;BME280;49970;54.976;73.248;2024-03-06T08:02:53;100441.28;;;-5.60;78.63
63819;BME280;49970;54.976;73.248;2024-03-06T08:05:19;100438.69;;;-5.54;79.12
63819;BME280;49970;54.976;73.248;2024-03-06T08:07:47;100437.84;;;-5.53;78.90
63819;BME280;49970;54.976;73.248;2024-03-06T08:10:14;100433.53;;;-5.53;78.70
63819;BME280;49970;54.976;73.248;2024-03-06T08:12:41;100424.06;;;-5.54;79.30
63819;BME280;49970;54.976;73.248;2024-03-06T08:15:28;100424.94;;;-5.50;79.21
63819;BME280;49970;54.976;73.248;2024-03-06T08:18:59;100425.78;;;-5.49;79.28
63819;BME280;49970;54.976;73.248;2024-03-06T08:22:30;100415.44;;;-5.46;79.63
63819;BME280;49970;54.976;73.248;2024-03-06T08:26:00;100419.75;;;-5.48;79.82
63819;BME280;49970;54.976;73.248;2024-03-06T08:29:32;100413.69;;;-5.41;80.02
63819;BME280;49970;54.976;73.248;2024-03-06T08:32:43;100418.81;;;-5.35;79.90
63819;BME280;49970;54.976;73.248;2024-03-06T08:35:11;100413.63;;;-5.28;80.14
63819;BME280;49970;54.976;73.248;2024-03-06T08:37:39;100416.22;;;-5.26;79.94
63819;BME280;49970;54.976;73.248;2024-03-06T08:40:07;100414.47;;;-5.24;80.19
63819;BME280;49970;54.976;73.248;2024-03-06T08:42:33;100375.84;;;-5.42;80.22
63819;BME280;49970;54.976;73.248;2024-03-06T08:45:00;100416.16;;;-5.17;79.88
63819;BME280;49970;54.976;73.248;2024-03-06T08:47:26;100413.53;;;-5.11;80.62
63819;BME280;49970;54.976;73.248;2024-03-06T08:49:52;100408.38;;;-5.08;80.79
63819;BME280;49970;54.976;73.248;2024-03-06T08:52:20;100400.59;;;-5.03;80.37
63819;BME280;49970;54.976;73.248;2024-03-06T08:54:47;100399.69;;;-4.99;80.56
63819;BME280;49970;54.976;73.248;2024-03-06T08:57:13;100402.25;;;-4.93;80.71
63819;BME280;49970;54.976;73.248;2024-03-06T08:59:39;100405.69;;;-4.94;80.86
63819;BME280;49970;54.976;73.248;2024-03-06T09:02:17;100399.66;;;-4.94;80.71
63819;BME280;49970;54.976;73.248;2024-03-06T09:04:45;100396.19;;;-4.87;80.28
63819;BME280;49970;54.976;73.248;2024-03-06T09:07:12;100402.19;;;-4.84;80.18
63819;BME280;49970;54.976;73.248;2024-03-06T09:09:40;100401.34;;;-4.87;80.54
63819;BME280;49970;54.976;73.248;2024-03-06T09:12:08;100400.47;;;-4.89;80.74
63819;BME280;49970;54.976;73.248;2024-03-06T09:14:38;100408.25;;;-4.89;80.76
63819;BME280;49970;54.976;73.248;2024-03-06T09:17:05;100402.25;;;-4.91;80.66
63819;BME280;49970;54.976;73.248;2024-03-06T09:19:32;100403.13;;;-4.92;80.04
63819;BME280;49970;54.976;73.248;2024-03-06T09:21:59;100406.53;;;-4.90;80.29
63819;BME280;49970;54.976;73.248;2024-03-06T09:24:26;100399.66;;;-4.91;80.22
63819;BME280;49970;54.976;73.248;2024-03-06T09:27:12;100407.41;;;-4.91;80.16
63819;BME280;49970;54.976;73.248;2024-03-06T09:31:10;100398.78;;;-4.93;80.18
63819;BME280;49970;54.976;73.248;2024-03-06T09:33:56;100406.56;;;-4.98;80.60
63819;BME280;49970;54.976;73.248;2024-03-06T09:36:23;100404.88;;;-5.02;79.95
63819;BME280;49970;54.976;73.248;2024-03-06T09:38:51;100401.47;;;-5.10;80.35
63819;BME280;49970;54.976;73.248;2024-03-06T09:41:18;100403.25;;;-5.14;80.66
63819;BME280;49970;54.976;73.248;2024-03-06T09:43:45;100408.41;;;-5.17;81.11
63819;BME280;49970;54.976;73.248;2024-03-06T09:46:11;100405.81;;;-5.18;80.81
63819;BME280;49970;54.976;73.248;2024-03-06T09:48:46;100398.97;;;-5.24;81.14
63819;BME280;49970;54.976;73.248;2024-03-06T09:51:13;100411.91;;;-5.26;80.73
63819;BME280;49970;54.976;73.248;2024-03-06T09:53:40;100407.59;;;-5.25;81.00
63819;BME280;49970;54.976;73.248;2024-03-06T09:56:07;100399.03;;;-5.33;81.31
63819;BME280;49970;54.976;73.248;2024-03-06T09:58:35;100400.75;;;-5.31;81.71
63819;BME280;49970;54.976;73.248;2024-03-06T10:01:02;100403.34;;;-5.31;81.51
63819;BME280;49970;54.976;73.248;2024-03-06T10:03:29;100395.59;;;-5.35;81.09
63819;BME280;49970;54.976;73.248;2024-03-06T10:05:56;100399.03;;;-5.36;81.14
63819;BME280;49970;54.976;73.248;2024-03-06T10:08:22;100400.78;;;-5.40;81.59
63819;BME280;49970;54.976;73.248;2024-03-06T10:10:52;100405.09;;;-5.37;81.93
63819;BME280;49970;54.976;73.248;2024-03-06T10:13:25;100405.09;;;-5.37;81.75
63819;BME280;49970;54.976;73.248;2024-03-06T10:16:11;100405.94;;;-5.40;82.03
63819;BME280;49970;54.976;73.248;2024-03-06T10:18:38;100403.41;;;-5.43;81.96
63819;BME280;49970;54.976;73.248;2024-03-06T10:21:05;100411.16;;;-5.46;82.29
63819;BME280;49970;54.976;73.248;2024-03-06T10:23:32;100401.69;;;-5.53;81.98
63819;BME280;49970;54.976;73.248;2024-03-06T10:25:59;100395.66;;;-5.49;82.31
63819;BME280;49970;54.976;73.248;2024-03-06T10:28:25;100391.34;;;-5.48;82.52
63819;BME280;49970;54.976;73.248;2024-03-06T10:31:03;100386.19;;;-5.45;82.88
63819;BME280;49970;54.976;73.248;2024-03-06T10:33:34;100381.00;;;-5.44;83.00
63819;BME280;49970;54.976;73.248;2024-03-06T10:36:01;100383.59;;;-5.41;82.62
63819;BME280;49970;54.976;73.248;2024-03-06T10:38:31;100369.84;;;-5.43;83.05
63819;BME280;49970;54.976;73.248;2024-03-06T10:41:02;100374.13;;;-5.45;82.66
63819;BME280;49970;54.976;73.248;2024-03-06T10:43:29;100375.84;;;-5.44;82.94
63819;BME280;49970;54.976;73.248;2024-03-06T10:46:00;100373.28;;;-5.42;83.91
63819;BME280;49970;54.976;73.248;2024-03-06T10:48:28;100378.44;;;-5.42;82.94
63819;BME280;49970;54.976;73.248;2024-03-06T10:50:55;100374.13;;;-5.42;83.60
63819;BME280;49970;54.976;73.248;2024-03-06T10:53:25;100362.09;;;-5.44;84.07
63819;BME280;49970;54.976;73.248;2024-03-06T10:55:53;100375.84;;;-5.41;84.20
63819;BME280;49970;54.976;73.248;2024-03-06T10:58:21;100372.41;;;-5.41;83.63
63819;BME280;49970;54.976;73.248;2024-03-06T11:00:48;100371.56;;;-5.45;83.33
63819;BME280;49970;54.976;73.248;2024-03-06T11:03:16;100361.25;;;-5.49;84.05
63819;BME280;49970;54.976;73.248;2024-03-06T11:05:44;100374.97;;;-5.41;84.28
63819;BME280;49970;54.976;73.248;2024-03-06T11:08:14;100368.09;;;-5.38;84.37
63819;BME280;49970;54.976;73.248;2024-03-06T11:11:23;100367.19;;;-5.35;84.39
63819;BME280;49970;54.976;73.248;2024-03-06T11:14:00;100365.47;;;-5.30;84.22
63819;BME280;49970;54.976;73.248;2024-03-06T11:16:30;100370.59;;;-5.27;84.18
63819;BME280;49970;54.976;73.248;2024-03-06T11:19:07;100370.66;;;-5.33;84.05
63819;BME280;49970;54.976;73.248;2024-03-06T11:21:33;100374.94;;;-5.34;84.18
63819;BME280;49970;54.976;73.248;2024-03-06T11:24:22;100369.78;;;-5.32;84.78
63819;BME280;49970;54.976;73.248;2024-03-06T11:26:55;100371.53;;;-5.34;84.22
63819;BME280;49970;54.976;73.248;2024-03-06T11:29:23;100364.63;;;-5.35;84.53
63819;BME280;49970;54.976;73.248;2024-03-06T11:32:07;100363.81;;;-5.39;84.60
63819;BME280;49970;54.976;73.248;2024-03-06T11:34:35;100367.25;;;-5.38;84.54
63819;BME280;49970;54.976;73.248;2024-03-06T11:37:08;100366.38;;;-5.40;84.36
63819;BME280;49970;54.976;73.248;2024-03-06T11:39:39;100338.91;;;-5.57;85.05
63819;BME280;49970;54.976;73.248;2024-03-06T11:42:07;100358.63;;;-5.40;85.38
63819;BME280;49970;54.976;73.248;2024-03-06T11:44:36;100361.19;;;-5.36;85.06
63819;BME280;49970;54.976;73.248;2024-03-06T11:47:05;100356.00;;;-5.36;85.14
63819;BME280;49970;54.976;73.248;2024-03-06T11:49:33;100348.31;;;-5.40;85.13
63819;BME280;49970;54.976;73.248;2024-03-06T11:52:02;100351.72;;;-5.37;85.48
63819;BME280;49970;54.976;73.248;2024-03-06T11:54:31;100341.38;;;-5.35;85.42
63819;BME280;49970;54.976;73.248;2024-03-06T11:56:59;100344.84;;;-5.35;85.43
63819;BME280;49970;54.976;73.248;2024-03-06T11:59:30;100337.94;;;-5.33;85.29
63819;BME280;49970;54.976;73.248;2024-03-06T12:01:59;100336.22;;;-5.34;85.38
63819;BME280;49970;54.976;73.248;2024-03-06T12:04:48;100330.22;;;-5.34;86.38
63819;BME280;49970;54.976;73.248;2024-03-06T12:07:59;100330.22;;;-5.34;86.16
63819;BME280;49970;54.976;73.248;2024-03-06T12:10:26;100323.31;;;-5.35;85.95
63819;BME280;49970;54.976;73.248;2024-03-06T12:12:52;100333.63;;;-5.35;85.93
63819;BME280;49970;54.976;73.248;2024-03-06T12:15:19;100324.25;;;-5.42;85.78
63819;BME280;49970;54.976;73.248;2024-03-06T12:18:05;100329.41;;;-5.45;85.81
63819;BME280;49970;54.976;73.248;2024-03-06T12:20:51;100327.66;;;-5.43;85.79
63819;BME280;49970;54.976;73.248;2024-03-06T12:24:04;100327.69;;;-5.42;86.34
63819;BME280;49970;54.976;73.248;2024-03-06T12:27:22;100329.38;;;-5.38;86.22
63819;BME280;49970;54.976;73.248;2024-03-06T12:29:55;100331.94;;;-5.36;86.48
63819;BME280;49970;54.976;73.248;2024-03-06T12:32:24;100317.34;;;-5.40;86.44
63819;BME280;49970;54.976;73.248;2024-03-06T12:34:58;100325.91;;;-5.34;86.10
63819;BME280;49970;54.976;73.248;2024-03-06T12:37:32;100318.16;;;-5.35;86.13
63819;BME280;49970;54.976;73.248;2024-03-06T12:40:03;100320.75;;;-5.37;86.41
63819;BME280;49970;54.976;73.248;2024-03-06T12:42:44;100323.34;;;-5.38;86.12
63819;BME280;49970;54.976;73.248;2024-03-06T12:45:16;100319.94;;;-5.45;86.45
63819;BME280;49970;54.976;73.248;2024-03-06T12:47:57;100325.13;;;-5.48;85.68
63819;BME280;49970;54.976;73.248;2024-03-06T12:50:29;100319.94;;;-5.48;86.36
63819;BME280;49970;54.976;73.248;2024-03-06T12:53:21;100313.97;;;-5.52;86.34
63819;BME280;49970;54.976;73.248;2024-03-06T12:56:01;100316.50;;;-5.48;86.32
63819;BME280;49970;54.976;73.248;2024-03-06T12:59:02;100317.38;;;-5.48;86.79
63819;BME280;49970;54.976;73.248;2024-03-06T13:02:34;100316.53;;;-5.50;86.39
63819;BME280;49970;54.976;73.248;2024-03-06T13:06:06;100316.56;;;-5.55;86.83
63819;BME280;49970;54.976;73.248;2024-03-06T13:10:03;100320.00;;;-5.57;86.42
63819;BME280;49970;54.976;73.248;2024-03-06T13:14:15;100320.91;;;-5.60;86.05
63819;BME280;49970;54.976;73.248;2024-03-06T13:17:52;100314.03;;;-5.62;86.67
63819;BME280;49970;54.976;73.248;2024-03-06T13:20:18;100305.41;;;-5.61;87.06
63819;BME280;49970;54.976;73.248;2024-03-06T13:22:45;100314.84;;;-5.54;87.23
63819;BME280;49970;54.976;73.248;2024-03-06T13:25:32;100313.09;;;-5.54;87.50
63819;BME280;49970;54.976;73.248;2024-03-06T13:28:43;100326.84;;;-5.48;87.32
63819;BME280;49970;54.976;73.248;2024-03-06T13:31:10;100323.41;;;-5.47;87.47
63819;BME280;49970;54.976;73.248;2024-03-06T13:33:36;100317.38;;;-5.46;87.60